createdAt,value
2022-07-26T00:06:57.335Z,19.50
2022-07-26T00:09:25.283Z,19.50
2022-07-26T00:11:53.192Z,19.50
2022-07-26T00:14:20.554Z,19.30
2022-07-26T00:16:47.926Z,19.30
2022-07-26T00:19:15.652Z,19.40
2022-07-26T00:21:43.012Z,19.20
2022-07-26T00:30:10.332Z,19.10
2022-07-26T00:32:38.504Z,19.20
2022-07-26T00:35:06.887Z,19.20
2022-07-26T00:37:34.193Z,19.10
2022-07-26T00:40:02.394Z,19.00
2022-07-26T00:42:29.901Z,19.30
2022-07-26T00:44:57.934Z,19.30
2022-07-26T00:54:05.691Z,19.50
2022-07-26T00:56:34.519Z,19.50
2022-07-26T00:59:05.467Z,19.50
2022-07-26T01:01:33.087Z,19.20
2022-07-26T01:04:00.633Z,19.10
2022-07-26T01:06:28.540Z,19.20
2022-07-26T01:08:56.073Z,19.10
2022-07-26T01:11:34.944Z,19.30
2022-07-26T01:21:31.131Z,19.40
2022-07-26T01:23:59.232Z,19.60
2022-07-26T01:26:26.466Z,19.60
2022-07-26T01:28:54.251Z,19.70
2022-07-26T01:31:21.747Z,19.70
2022-07-26T01:33:50.253Z,19.70
2022-07-26T01:36:18.266Z,19.30
2022-07-26T01:44:07.886Z,19.30
2022-07-26T01:46:35.903Z,19.30
2022-07-26T01:49:03.662Z,19.30
2022-07-26T01:51:31.205Z,19.20
2022-07-26T01:53:59.056Z,19.00
2022-07-26T01:56:26.481Z,18.90
2022-07-26T01:58:54.386Z,18.80
2022-07-26T02:01:37.881Z,18.90
2022-07-26T02:09:13.253Z,18.40
2022-07-26T02:11:40.394Z,18.70
2022-07-26T02:14:08.586Z,18.60
2022-07-26T02:16:36.894Z,18.60
2022-07-26T02:19:04.355Z,18.70
2022-07-26T02:21:32.185Z,18.80
2022-07-26T02:23:59.552Z,19.00
2022-07-26T02:29:10.063Z,19.00
2022-07-26T02:31:37.320Z,18.70
2022-07-26T02:34:05.419Z,18.40
2022-07-26T02:36:33.215Z,18.40
2022-07-26T02:39:00.753Z,18.20
2022-07-26T02:41:30.752Z,18.20
2022-07-26T02:43:58.434Z,18.10
2022-07-26T02:49:40.533Z,18.00
2022-07-26T02:52:07.964Z,17.90
2022-07-26T02:54:36.154Z,18.00
2022-07-26T02:57:03.361Z,18.00
2022-07-26T02:59:30.723Z,18.20
2022-07-26T03:01:57.994Z,18.20
2022-07-26T03:04:25.465Z,18.10
2022-07-26T03:09:52.635Z,17.80
2022-07-26T03:12:20.482Z,17.50
2022-07-26T03:14:47.716Z,17.50
2022-07-26T03:17:15.199Z,17.30
2022-07-26T03:19:42.574Z,17.20
2022-07-26T03:22:10.162Z,17.30
2022-07-26T03:24:37.684Z,17.30
2022-07-26T03:27:06.221Z,17.10
2022-07-26T03:34:40.230Z,17.00
2022-07-26T03:37:07.492Z,17.00
2022-07-26T03:39:34.875Z,17.00
2022-07-26T03:42:02.573Z,17.00
2022-07-26T03:44:30.426Z,16.90
2022-07-26T03:46:58.155Z,16.90
2022-07-26T03:49:26.285Z,16.90
2022-07-26T03:59:09.594Z,16.80
2022-07-26T04:01:41.085Z,16.90
2022-07-26T04:04:09.948Z,16.80
2022-07-26T04:06:40.242Z,16.80
2022-07-26T04:09:08.745Z,16.60
2022-07-26T04:11:36.308Z,16.50
2022-07-26T04:14:04.793Z,16.30
2022-07-26T04:19:37.516Z,16.20
2022-07-26T04:22:07.702Z,16.20
2022-07-26T04:24:35.962Z,16.10
2022-07-26T04:27:04.344Z,16.20
2022-07-26T04:29:32.294Z,16.10
2022-07-26T04:32:00.236Z,16.10
2022-07-26T04:34:27.487Z,16.10
2022-07-26T04:39:35.715Z,16.10
2022-07-26T04:42:03.634Z,16.30
2022-07-26T04:44:31.585Z,16.40
2022-07-26T04:46:59.557Z,16.50
2022-07-26T04:49:27.133Z,16.40
2022-07-26T04:51:59.276Z,16.40
2022-07-26T04:54:26.979Z,16.50
2022-07-26T04:59:35.206Z,16.40
2022-07-26T05:02:02.695Z,16.50
2022-07-26T05:04:30.456Z,16.50
2022-07-26T05:07:02.594Z,16.60
2022-07-26T05:09:30.493Z,16.70
2022-07-26T05:11:57.845Z,16.80
2022-07-26T05:14:25.814Z,17.00
2022-07-26T05:19:44.875Z,16.80
2022-07-26T05:22:17.258Z,16.70
2022-07-26T05:24:45.043Z,16.70
2022-07-26T05:27:12.558Z,16.60
2022-07-26T05:29:39.977Z,16.70
2022-07-26T05:32:08.432Z,16.70
2022-07-26T05:34:36.142Z,16.80
2022-07-26T05:42:36.911Z,16.80
2022-07-26T05:45:18.215Z,16.90
2022-07-26T05:48:37.513Z,16.70
2022-07-26T05:51:15.718Z,16.80
2022-07-26T05:53:42.811Z,17.00
2022-07-26T05:56:11.000Z,17.00
2022-07-26T05:59:01.772Z,16.80
2022-07-26T06:01:32.137Z,16.80
2022-07-26T06:04:01.204Z,16.70
2022-07-26T06:09:09.700Z,16.80
2022-07-26T06:11:37.169Z,16.90
2022-07-26T06:14:05.049Z,16.90
2022-07-26T06:16:32.342Z,17.00
2022-07-26T06:19:00.345Z,17.10
2022-07-26T06:21:28.514Z,17.10
2022-07-26T06:23:55.994Z,17.20
2022-07-26T06:32:18.293Z,17.00
2022-07-26T06:34:45.785Z,17.10
2022-07-26T06:37:13.075Z,17.10
2022-07-26T06:39:40.621Z,17.10
2022-07-26T06:42:08.224Z,17.10
2022-07-26T06:44:35.713Z,17.10
2022-07-26T06:47:03.337Z,17.10
2022-07-26T06:52:12.057Z,17.10
2022-07-26T06:54:39.033Z,17.70
2022-07-26T06:57:06.624Z,17.80
2022-07-26T06:59:48.073Z,17.90
2022-07-26T07:02:34.713Z,17.90
2022-07-26T07:05:31.873Z,17.70
2022-07-26T07:15:50.295Z,17.70
2022-07-26T07:18:18.185Z,17.70
2022-07-26T07:20:46.628Z,17.90
2022-07-26T07:23:14.552Z,18.10
2022-07-26T07:25:44.737Z,18.30
2022-07-26T07:28:12.641Z,18.60
2022-07-26T07:30:45.236Z,18.70
2022-07-26T07:33:23.018Z,18.70
2022-07-26T07:40:59.101Z,18.50
2022-07-26T07:43:27.089Z,18.70
2022-07-26T07:45:54.864Z,18.80
2022-07-26T07:48:22.544Z,18.80
2022-07-26T07:50:50.345Z,18.90
2022-07-26T07:53:21.075Z,19.10
2022-07-26T07:55:50.155Z,19.10
2022-07-26T08:03:39.050Z,18.90
2022-07-26T08:06:09.052Z,19.10
2022-07-26T08:08:38.516Z,19.30
2022-07-26T08:11:07.796Z,19.20
2022-07-26T08:13:36.754Z,19.50
2022-07-26T08:16:06.209Z,19.60
2022-07-26T08:18:49.066Z,19.70
2022-07-26T08:25:57.322Z,20.20
2022-07-26T08:28:47.028Z,20.10
2022-07-26T08:31:20.826Z,19.90
2022-07-26T08:33:48.726Z,19.80
2022-07-26T08:36:16.921Z,20.10
2022-07-26T08:38:47.154Z,20.20
2022-07-26T08:41:19.064Z,20.40
2022-07-26T08:47:04.953Z,20.70
2022-07-26T08:49:48.803Z,20.70
2022-07-26T08:52:17.474Z,20.70
2022-07-26T08:54:51.951Z,20.70
2022-07-26T08:57:29.352Z,21.10
2022-07-26T09:00:20.712Z,21.20
2022-07-26T09:02:51.994Z,21.30
2022-07-26T09:05:55.092Z,21.20
2022-07-26T09:13:20.742Z,20.60
2022-07-26T09:15:52.108Z,19.90
2022-07-26T09:18:29.812Z,19.70
2022-07-26T09:20:59.062Z,19.70
2022-07-26T09:23:42.254Z,19.80
2022-07-26T09:26:14.475Z,19.90
2022-07-26T09:28:56.992Z,20.00
2022-07-26T09:31:35.439Z,20.20
2022-07-26T09:39:09.510Z,20.80
2022-07-26T09:41:37.605Z,21.40
2022-07-26T09:44:16.101Z,21.40
2022-07-26T09:46:54.086Z,21.20
2022-07-26T09:49:22.966Z,21.20
2022-07-26T09:51:58.622Z,21.20
2022-07-26T09:54:55.982Z,21.10
2022-07-26T10:06:14.843Z,21.10
2022-07-26T10:08:49.840Z,21.20
2022-07-26T10:11:27.613Z,21.60
2022-07-26T10:14:10.020Z,21.60
2022-07-26T10:16:37.774Z,21.70
2022-07-26T10:19:19.221Z,21.70
2022-07-26T10:24:47.245Z,22.00
2022-07-26T10:30:34.943Z,21.70
2022-07-26T10:33:18.245Z,21.70
2022-07-26T10:35:46.371Z,21.70
2022-07-26T10:38:34.823Z,21.70
2022-07-26T10:41:03.943Z,21.90
2022-07-26T10:43:47.550Z,21.70
2022-07-26T10:46:26.670Z,21.50
2022-07-26T10:49:24.170Z,21.40
2022-07-26T10:52:17.631Z,21.40
2022-07-26T10:55:07.846Z,21.50
2022-07-26T10:58:10.066Z,21.50
2022-07-26T11:00:38.903Z,21.50
2022-07-26T11:08:47.900Z,21.10
2022-07-26T11:11:32.182Z,20.90
2022-07-26T11:14:07.866Z,20.80
2022-07-26T11:16:40.311Z,20.80
2022-07-26T11:19:32.830Z,20.90
2022-07-26T11:22:09.540Z,21.10
2022-07-26T11:24:43.772Z,21.20
2022-07-26T11:30:14.626Z,21.10
2022-07-26T11:32:54.328Z,21.50
2022-07-26T11:35:22.381Z,21.70
2022-07-26T11:38:11.330Z,21.60
2022-07-26T11:40:43.632Z,21.70
2022-07-26T11:43:15.578Z,21.50
2022-07-26T11:45:55.174Z,21.50
2022-07-26T11:53:30.011Z,21.50
2022-07-26T11:56:18.182Z,21.50
2022-07-26T11:58:49.242Z,21.40
2022-07-26T12:01:18.834Z,21.40
2022-07-26T12:03:52.325Z,21.30
2022-07-26T12:06:20.742Z,21.40
2022-07-26T12:08:56.026Z,21.60
2022-07-26T12:15:55.057Z,21.90
2022-07-26T12:18:29.075Z,21.80
2022-07-26T12:21:07.155Z,21.70
2022-07-26T12:23:42.933Z,21.50
2022-07-26T12:26:20.643Z,21.40
2022-07-26T12:28:48.286Z,21.20
2022-07-26T12:31:28.411Z,21.20
2022-07-26T12:48:49.304Z,21.30
2022-07-26T12:51:20.743Z,21.80
2022-07-26T12:53:48.221Z,21.70
2022-07-26T12:56:15.201Z,22.00
2022-07-26T12:58:42.293Z,22.30
2022-07-26T13:01:19.042Z,22.50
2022-07-26T13:03:47.544Z,22.50
2022-07-26T13:09:08.648Z,22.60
2022-07-26T13:11:36.216Z,22.50
2022-07-26T13:14:04.313Z,22.70
2022-07-26T13:16:31.739Z,23.00
2022-07-26T13:19:01.355Z,23.20
2022-07-26T13:21:33.324Z,23.30
2022-07-26T13:24:01.434Z,23.30
2022-07-26T13:26:30.453Z,23.30
2022-07-26T13:33:59.269Z,23.40
2022-07-26T13:36:26.821Z,23.00
2022-07-26T13:38:58.942Z,22.70
2022-07-26T13:41:27.912Z,22.40
2022-07-26T13:44:04.254Z,22.10
2022-07-26T13:46:33.650Z,22.00
2022-07-26T13:49:04.214Z,21.90
2022-07-26T13:56:40.934Z,22.00
2022-07-26T13:59:12.082Z,21.70
2022-07-26T14:01:50.471Z,21.80
2022-07-26T14:04:20.185Z,21.70
2022-07-26T14:06:51.044Z,21.60
2022-07-26T14:09:19.885Z,21.70
2022-07-26T14:11:50.361Z,21.90
2022-07-26T14:19:23.123Z,22.10
2022-07-26T14:22:00.068Z,22.30
2022-07-26T14:24:29.602Z,22.50
2022-07-26T14:26:59.244Z,22.80
2022-07-26T14:29:27.320Z,22.90
2022-07-26T14:31:54.980Z,23.00
2022-07-26T14:34:45.615Z,22.90
2022-07-26T14:42:20.755Z,22.20
2022-07-26T14:44:49.264Z,22.30
2022-07-26T14:47:19.243Z,22.40
2022-07-26T14:49:47.151Z,22.50
2022-07-26T14:52:15.012Z,22.40
2022-07-26T14:54:42.597Z,22.40
2022-07-26T14:57:09.942Z,22.30
2022-07-26T15:02:20.685Z,22.30
2022-07-26T15:04:48.875Z,22.20
2022-07-26T15:07:17.882Z,22.30
2022-07-26T15:09:46.355Z,22.40
2022-07-26T15:12:13.819Z,22.30
2022-07-26T15:14:44.873Z,22.40
2022-07-26T15:17:15.142Z,22.70
2022-07-26T15:24:42.856Z,22.70
2022-07-26T15:27:10.044Z,22.90
2022-07-26T15:29:37.572Z,23.10
2022-07-26T15:32:11.014Z,23.30
2022-07-26T15:34:40.986Z,23.20
2022-07-26T15:37:10.940Z,23.20
2022-07-26T15:39:42.596Z,22.90
2022-07-26T15:47:52.221Z,22.50
2022-07-26T15:50:18.925Z,22.30
2022-07-26T15:53:04.296Z,21.80
2022-07-26T15:55:32.715Z,21.70
2022-07-26T15:58:03.809Z,21.60
2022-07-26T16:00:36.398Z,21.60
2022-07-26T16:03:16.136Z,21.50
2022-07-26T16:11:07.737Z,21.60
2022-07-26T16:13:35.766Z,21.90
2022-07-26T16:16:09.688Z,22.00
2022-07-26T16:18:42.048Z,22.00
2022-07-26T16:21:14.705Z,22.00
2022-07-26T16:23:42.515Z,21.90
2022-07-26T16:26:15.144Z,21.70
2022-07-26T16:33:55.387Z,21.80
2022-07-26T16:36:25.694Z,21.70
2022-07-26T16:39:03.159Z,21.80
2022-07-26T16:41:36.265Z,21.80
2022-07-26T16:44:05.197Z,21.90
2022-07-26T16:46:35.448Z,21.80
2022-07-26T16:49:05.150Z,21.80
2022-07-26T16:56:42.555Z,22.00
2022-07-26T16:59:12.562Z,22.30
2022-07-26T17:01:43.453Z,22.30
2022-07-26T17:04:15.175Z,22.40
2022-07-26T17:07:22.163Z,22.40
2022-07-26T17:09:45.787Z,22.30
2022-07-26T17:12:17.827Z,22.20
2022-07-26T17:19:32.614Z,22.00
2022-07-26T17:22:05.531Z,21.60
2022-07-26T17:24:34.824Z,21.40
2022-07-26T17:27:11.277Z,21.40
2022-07-26T17:29:53.146Z,21.40
2022-07-26T17:32:31.321Z,21.50
2022-07-26T17:41:57.607Z,21.70
2022-07-26T17:44:27.544Z,21.50
2022-07-26T17:47:05.265Z,21.20
2022-07-26T17:50:36.040Z,21.30
2022-07-26T17:52:59.635Z,21.30
2022-07-26T17:55:35.883Z,21.40
2022-07-26T18:03:32.694Z,21.40
2022-07-26T18:06:08.654Z,21.40
2022-07-26T18:08:39.926Z,21.60
2022-07-26T18:11:10.566Z,21.70
2022-07-26T18:13:39.584Z,21.70
2022-07-26T18:16:15.022Z,21.70
2022-07-26T18:24:21.967Z,21.50
2022-07-26T18:26:50.807Z,21.50
2022-07-26T18:29:18.794Z,21.40
2022-07-26T18:31:51.281Z,21.50
2022-07-26T18:34:30.217Z,21.40
2022-07-26T18:37:14.506Z,21.40
2022-07-26T18:39:57.992Z,21.50
2022-07-26T18:47:32.335Z,21.50
2022-07-26T18:50:02.677Z,21.40
2022-07-26T18:52:32.852Z,21.20
2022-07-26T18:55:07.597Z,21.00
2022-07-26T18:57:36.707Z,20.80
2022-07-26T19:00:09.075Z,20.90
2022-07-26T19:02:39.409Z,21.00
2022-07-26T19:10:15.575Z,20.80
2022-07-26T19:12:47.914Z,20.50
2022-07-26T19:15:22.597Z,20.40
2022-07-26T19:17:51.993Z,20.40
2022-07-26T19:20:21.258Z,20.40
2022-07-26T19:22:52.138Z,20.50
2022-07-26T19:26:03.630Z,20.40
2022-07-26T19:33:47.315Z,20.20
2022-07-26T19:36:18.236Z,20.30
2022-07-26T19:38:54.677Z,20.20
2022-07-26T19:41:24.087Z,20.20
2022-07-26T19:43:52.891Z,20.10
2022-07-26T19:46:20.467Z,20.00
2022-07-26T19:48:54.950Z,20.00
2022-07-26T19:55:42.744Z,19.90
2022-07-26T19:58:12.826Z,20.20
2022-07-26T20:00:41.036Z,20.30
2022-07-26T20:03:10.212Z,20.10
2022-07-26T20:05:41.119Z,20.10
2022-07-26T20:08:12.670Z,19.90
2022-07-26T20:10:46.373Z,19.60
2022-07-26T20:16:15.207Z,19.30
2022-07-26T20:18:43.148Z,19.10
2022-07-26T20:21:10.907Z,19.10
2022-07-26T20:23:38.742Z,19.00
2022-07-26T20:26:06.567Z,19.00
2022-07-26T20:28:46.465Z,18.90
2022-07-26T20:31:32.469Z,18.80
2022-07-26T20:39:05.274Z,18.80
2022-07-26T20:41:34.809Z,18.90
2022-07-26T20:44:05.305Z,18.90
2022-07-26T20:46:40.230Z,18.90
2022-07-26T20:49:10.297Z,18.70
2022-07-26T20:51:38.029Z,18.70
2022-07-26T20:54:10.370Z,18.70
2022-07-26T20:59:38.066Z,18.60
2022-07-26T21:02:06.681Z,18.60
2022-07-26T21:04:33.786Z,18.50
2022-07-26T21:07:02.842Z,18.50
2022-07-26T21:09:39.851Z,18.50
2022-07-26T21:12:09.546Z,18.50
2022-07-26T21:14:37.771Z,18.80
2022-07-26T21:21:57.486Z,18.80
2022-07-26T21:24:24.515Z,18.90
2022-07-26T21:26:52.235Z,19.00
2022-07-26T21:29:20.324Z,19.00
2022-07-26T21:31:48.035Z,18.90
2022-07-26T21:34:16.089Z,19.00
2022-07-26T21:36:43.374Z,18.80
2022-07-26T21:41:56.149Z,18.90
2022-07-26T21:44:23.365Z,18.70
2022-07-26T21:46:54.540Z,18.70
2022-07-26T21:49:22.336Z,18.60
2022-07-26T21:51:49.863Z,18.80
2022-07-26T21:54:17.355Z,18.80
2022-07-26T21:56:44.909Z,19.00
2022-07-26T22:04:00.672Z,18.90
2022-07-26T22:06:27.923Z,18.90
2022-07-26T22:08:55.637Z,18.80
2022-07-26T22:11:23.657Z,18.70
2022-07-26T22:13:51.079Z,18.80
2022-07-26T22:16:18.123Z,18.70
2022-07-26T22:18:45.287Z,18.60
2022-07-26T22:26:26.454Z,18.60
2022-07-26T22:28:53.955Z,18.50
2022-07-26T22:31:22.229Z,18.50
2022-07-26T22:33:49.395Z,18.40
2022-07-26T22:36:22.537Z,18.30
2022-07-26T22:38:49.458Z,18.40
2022-07-26T22:41:17.085Z,18.00
2022-07-26T22:48:52.012Z,18.30
2022-07-26T22:51:22.554Z,18.50
2022-07-26T22:53:50.115Z,18.20
2022-07-26T22:56:23.667Z,18.20
2022-07-26T22:58:50.958Z,18.20
2022-07-26T23:01:18.357Z,18.20
2022-07-26T23:03:49.800Z,18.30
2022-07-26T23:09:09.364Z,18.30
2022-07-26T23:11:37.128Z,18.20
2022-07-26T23:14:04.487Z,18.00
2022-07-26T23:16:32.230Z,18.20
2022-07-26T23:18:59.697Z,18.30
2022-07-26T23:21:27.417Z,18.20
2022-07-26T23:23:54.879Z,18.00
2022-07-26T23:29:16.117Z,18.00
2022-07-26T23:31:43.921Z,17.70
2022-07-26T23:34:11.599Z,17.60
2022-07-26T23:36:39.666Z,17.70
2022-07-26T23:39:06.929Z,17.60
2022-07-26T23:41:35.128Z,17.50
2022-07-26T23:44:02.650Z,17.30
2022-07-26T23:46:31.675Z,17.40
2022-07-26T23:53:37.111Z,17.30
2022-07-26T23:56:04.725Z,17.00
2022-07-26T23:58:32.026Z,17.00
